Time;durP1;ratioP1;P1;durP2;ratioP2;P2;SDS_P1;SDS_P2;PMS_P1;PMS_P2;Temp;Humidity;BMP_temperature;BMP_pressure;BME280_temperature;BME280_humidity;BME280_pressure;Samples;Min_cycle;Max_cycle;Signal;HPM_P1;HPM_P2
2023/07/18 00:00:29;;;;;;;5.28;3.50;;;25.70;69.90;;;;;;5006724;28;20046;-57
2023/07/18 00:02:55;;;;;;;4.93;3.17;;;25.70;70.10;;;;;;5006215;28;20057;-57
2023/07/18 00:05:21;;;;;;;6.03;3.63;;;25.70;69.90;;;;;;5006300;28;20033;-57
2023/07/18 00:07:47;;;;;;;7.72;3.63;;;25.70;69.60;;;;;;5007538;28;20050;-57
2023/07/18 00:10:12;;;;;;;7.18;3.78;;;25.60;69.60;;;;;;5007450;28;20026;-57
2023/07/18 00:12:38;;;;;;;4.88;3.63;;;25.60;69.60;;;;;;4990523;28;20037;-57
2023/07/18 00:15:09;;;;;;;7.15;3.47;;;25.60;70.20;;;;;;5006141;28;20029;-57
2023/07/18 00:17:35;;;;;;;6.25;3.60;;;25.60;70.40;;;;;;5006439;28;20029;-57
2023/07/18 00:20:02;;;;;;;5.68;3.90;;;25.60;70.90;;;;;;4990503;28;20030;-56
2023/07/18 00:22:27;;;;;;;5.43;3.50;;;25.50;70.70;;;;;;5006628;28;20046;-57
2023/07/18 00:24:53;;;;;;;6.13;3.40;;;25.50;70.80;;;;;;5006531;28;20026;-56
2023/07/18 00:27:18;;;;;;;7.50;3.88;;;25.50;70.90;;;;;;5007495;28;20037;-57
2023/07/18 00:29:44;;;;;;;5.25;3.42;;;25.40;70.90;;;;;;5006806;28;20030;-57
2023/07/18 00:32:10;;;;;;;4.63;3.20;;;25.40;71.10;;;;;;5005792;28;20118;-57
2023/07/18 00:34:36;;;;;;;6.03;3.75;;;25.40;70.70;;;;;;5005792;28;20474;-57
2023/07/18 00:37:01;;;;;;;5.38;3.75;;;25.40;70.60;;;;;;5007057;28;20058;-57
2023/07/18 00:39:27;;;;;;;5.03;3.58;;;25.40;70.60;;;;;;5005894;28;20019;-57
2023/07/18 00:41:52;;;;;;;5.07;3.30;;;25.40;70.60;;;;;;5005589;28;20034;-57
2023/07/18 00:44:18;;;;;;;6.30;3.67;;;25.40;70.70;;;;;;5009325;28;20095;-57
2023/07/18 00:46:44;;;;;;;4.68;3.50;;;25.40;70.80;;;;;;5026197;28;20025;-56
2023/07/18 00:49:09;;;;;;;8.50;3.80;;;25.40;70.80;;;;;;5028534;28;20025;-57
2023/07/18 00:51:35;;;;;;;5.25;3.42;;;25.40;71.00;;;;;;5045218;28;20028;-57
2023/07/18 00:54:00;;;;;;;6.25;4.00;;;25.40;71.30;;;;;;5044662;28;20033;-57
2023/07/18 00:56:26;;;;;;;6.25;3.97;;;25.30;71.40;;;;;;5044991;28;20044;-57
2023/07/18 00:58:52;;;;;;;4.93;3.38;;;25.30;71.40;;;;;;5046249;28;20036;-57
2023/07/18 01:01:17;;;;;;;4.75;3.58;;;25.30;71.60;;;;;;5045998;28;20509;-57
2023/07/18 01:03:43;;;;;;;6.28;4.00;;;25.20;71.70;;;;;;5036215;28;20057;-56
2023/07/18 01:06:08;;;;;;;6.15;3.85;;;25.20;71.80;;;;;;5029128;28;20046;-57
2023/07/18 01:08:35;;;;;;;5.75;3.72;;;25.20;72.00;;;;;;5025360;28;20045;-57
2023/07/18 01:11:01;;;;;;;6.15;3.63;;;25.10;72.00;;;;;;5025508;28;20109;-57
2023/07/18 01:13:27;;;;;;;5.22;4.00;;;25.20;71.70;;;;;;5025341;28;20057;-57
2023/07/18 01:15:52;;;;;;;5.53;3.80;;;25.10;71.60;;;;;;5026464;28;20089;-57
2023/07/18 01:18:18;;;;;;;4.95;3.72;;;25.10;71.70;;;;;;5025018;28;20026;-57
2023/07/18 01:20:45;;;;;;;5.90;3.65;;;25.10;72.10;;;;;;5017382;28;20049;-57
2023/07/18 01:23:11;;;;;;;4.72;3.78;;;25.10;71.80;;;;;;5005306;28;20026;-57
2023/07/18 01:25:37;;;;;;;5.80;3.60;;;25.10;72.00;;;;;;5005338;28;20120;-57
2023/07/18 01:28:03;;;;;;;6.28;4.13;;;25.10;72.10;;;;;;4989061;28;20034;-57
2023/07/18 01:30:29;;;;;;;5.80;3.90;;;25.10;72.10;;;;;;5005216;28;20030;-57
2023/07/18 01:32:55;;;;;;;6.20;3.55;;;25.10;72.20;;;;;;5005116;28;20035;-57
2023/07/18 01:35:23;;;;;;;4.97;3.90;;;25.00;72.40;;;;;;5005280;28;20045;-57
2023/07/18 01:37:49;;;;;;;5.28;3.28;;;25.00;72.60;;;;;;5005767;28;20035;-57
2023/07/18 01:40:19;;;;;;;6.57;4.35;;;24.90;72.60;;;;;;4988774;28;20022;-57
2023/07/18 01:42:45;;;;;;;5.50;3.60;;;24.90;72.50;;;;;;5004932;28;20037;-57
2023/07/18 01:45:11;;;;;;;11.68;4.10;;;24.90;72.50;;;;;;5024145;28;20038;-57
2023/07/18 01:47:37;;;;;;;5.13;3.60;;;24.90;72.80;;;;;;5025963;28;20034;-57
2023/07/18 01:50:04;;;;;;;5.85;3.97;;;24.90;73.10;;;;;;5024653;28;20114;-57
2023/07/18 01:52:30;;;;;;;6.85;3.97;;;24.90;73.10;;;;;;5028370;28;20080;-57
2023/07/18 01:54:58;;;;;;;7.35;4.00;;;24.80;73.10;;;;;;5027724;28;20056;-57
2023/07/18 01:57:29;;;;;;;5.78;4.13;;;24.80;73.10;;;;;;5028328;28;20079;-57
2023/07/18 01:59:55;;;;;;;6.07;4.40;;;24.80;73.20;;;;;;5028314;28;20421;-57
2023/07/18 02:02:21;;;;;;;6.40;4.43;;;24.80;73.40;;;;;;5029542;28;20086;-57
2023/07/18 02:04:46;;;;;;;4.68;3.78;;;24.80;73.50;;;;;;5028373;28;20030;-57
2023/07/18 02:07:12;;;;;;;5.72;4.57;;;24.80;73.70;;;;;;5029373;28;20052;-57
2023/07/18 02:09:37;;;;;;;5.97;4.43;;;24.70;73.70;;;;;;5029674;28;20030;-57
2023/07/18 02:12:03;;;;;;;4.53;4.07;;;24.70;73.80;;;;;;5016743;28;20090;-57
2023/07/18 02:14:29;;;;;;;5.05;4.25;;;24.70;73.90;;;;;;5008541;28;20113;-57
2023/07/18 02:16:55;;;;;;;5.32;3.97;;;24.70;74.10;;;;;;5008221;28;20045;-58
2023/07/18 02:19:20;;;;;;;6.85;4.13;;;24.70;74.40;;;;;;5008399;28;20023;-57
2023/07/18 02:21:46;;;;;;;5.72;4.28;;;24.60;74.30;;;;;;4992214;28;20026;-57
2023/07/18 02:24:11;;;;;;;6.32;4.72;;;24.60;74.40;;;;;;5008387;28;20293;-57
2023/07/18 02:26:38;;;;;;;5.93;4.68;;;24.60;74.50;;;;;;5008212;28;20034;-57
2023/07/18 02:29:03;;;;;;;7.85;4.78;;;24.60;75.20;;;;;;5019359;28;20025;-57
2023/07/18 02:31:29;;;;;;;5.47;4.50;;;24.50;74.40;;;;;;5011198;28;20498;-57
2023/07/18 02:33:55;;;;;;;7.47;4.82;;;24.60;74.40;;;;;;5027558;28;20501;-57
2023/07/18 02:36:21;;;;;;;6.35;5.05;;;24.50;74.30;;;;;;5029075;28;20029;-57
2023/07/18 02:38:47;;;;;;;8.07;5.25;;;24.50;75.00;;;;;;5028945;28;20077;-58
2023/07/18 02:41:12;;;;;;;7.55;4.95;;;24.50;74.40;;;;;;5027510;28;20026;-57
2023/07/18 02:43:38;;;;;;;8.77;5.07;;;24.50;74.40;;;;;;5028874;28;20053;-57
2023/07/18 02:46:03;;;;;;;5.63;4.30;;;24.50;74.40;;;;;;5026865;28;20033;-57
2023/07/18 02:48:29;;;;;;;8.02;4.43;;;24.50;74.30;;;;;;5028698;28;20117;-57
2023/07/18 02:50:54;;;;;;;6.50;4.50;;;24.50;74.40;;;;;;5045019;28;20030;-57
2023/07/18 02:53:20;;;;;;;6.65;4.40;;;24.40;74.30;;;;;;5048427;28;20037;-57
2023/07/18 02:55:49;;;;;;;6.18;4.40;;;24.40;74.20;;;;;;5048490;28;20029;-57
2023/07/18 02:58:14;;;;;;;5.90;4.80;;;24.40;74.00;;;;;;5048368;28;20041;-57
2023/07/18 03:00:40;;;;;;;7.32;4.40;;;24.40;74.00;;;;;;5048279;28;20021;-57
2023/07/18 03:03:06;;;;;;;4.93;4.38;;;24.30;74.70;;;;;;5024094;28;20493;-56
2023/07/18 03:05:33;;;;;;;6.40;4.90;;;24.30;74.10;;;;;;5007645;28;20035;-57
2023/07/18 03:07:59;;;;;;;6.03;4.63;;;24.30;74.10;;;;;;5007755;28;20030;-57
2023/07/18 03:10:24;;;;;;;5.10;4.47;;;24.30;74.10;;;;;;5007922;28;20376;-57
2023/07/18 03:12:50;;;;;;;8.77;4.88;;;24.30;74.10;;;;;;5007386;28;20052;-57
2023/07/18 03:15:19;;;;;;;22.88;6.45;;;24.30;74.10;;;;;;5007444;28;20030;-57
2023/07/18 03:17:45;;;;;;;7.93;4.78;;;24.30;74.20;;;;;;5008511;28;20034;-57
2023/07/18 03:20:17;;;;;;;7.38;4.75;;;24.30;74.10;;;;;;5008047;28;20038;-57
2023/07/18 03:22:49;;;;;;;11.38;6.50;;;24.20;74.10;;;;;;5008648;28;20089;-57
2023/07/18 03:25:16;;;;;;;10.63;6.82;;;24.20;74.20;;;;;;5007173;28;20034;-57
2023/07/18 03:27:41;;;;;;;9.82;6.15;;;24.20;74.20;;;;;;5021459;28;20510;-57
2023/07/18 03:30:10;;;;;;;7.50;5.18;;;24.20;74.20;;;;;;5027942;28;20061;-57
2023/07/18 03:32:36;;;;;;;10.30;6.05;;;24.20;74.20;;;;;;5027704;28;20026;-57
2023/07/18 03:35:02;;;;;;;8.40;5.20;;;24.20;74.40;;;;;;5026298;28;20184;-57
2023/07/18 03:37:28;;;;;;;11.20;6.25;;;24.10;74.30;;;;;;5012652;28;20030;-57
2023/07/18 03:39:53;;;;;;;10.88;6.07;;;24.10;74.10;;;;;;5012066;28;20101;-57
2023/07/18 03:42:20;;;;;;;9.27;5.80;;;24.10;74.10;;;;;;5025655;28;20559;-57
2023/07/18 03:44:46;;;;;;;7.13;5.03;;;24.10;74.10;;;;;;5026252;28;20030;-57
2023/07/18 03:47:11;;;;;;;12.63;5.25;;;24.10;74.20;;;;;;5026452;28;20366;-57
2023/07/18 03:49:37;;;;;;;44.83;8.93;;;24.10;74.30;;;;;;5027398;28;20363;-57
2023/07/18 03:52:04;;;;;;;30.48;7.57;;;24.00;74.30;;;;;;5026182;28;20029;-57
2023/07/18 03:54:29;;;;;;;36.83;9.02;;;24.00;74.30;;;;;;5011103;28;20033;-57
2023/07/18 03:56:55;;;;;;;39.92;8.75;;;24.00;74.20;;;;;;5006535;28;20097;-57
2023/07/18 03:59:21;;;;;;;29.20;8.35;;;24.00;74.30;;;;;;5007552;28;20037;-57
2023/07/18 04:01:46;;;;;;;31.80;7.55;;;24.00;74.40;;;;;;5007890;28;20023;-58
2023/07/18 04:04:13;;;;;;;27.80;7.40;;;23.90;74.30;;;;;;5006235;28;20037;-57
2023/07/18 04:06:39;;;;;;;24.05;7.28;;;23.90;74.30;;;;;;5025677;28;20057;-57
2023/07/18 04:09:05;;;;;;;20.30;5.93;;;23.90;74.30;;;;;;5025396;28;20044;-57
2023/07/18 04:11:31;;;;;;;21.92;6.20;;;23.90;74.50;;;;;;5026297;28;20033;-57
2023/07/18 04:13:57;;;;;;;25.40;6.07;;;23.90;74.70;;;;;;5024773;28;20026;-57
2023/07/18 04:16:22;;;;;;;22.58;6.38;;;23.90;74.60;;;;;;5026353;28;20030;-57
2023/07/18 04:18:48;;;;;;;17.02;5.68;;;23.90;74.60;;;;;;5025236;28;20022;-57
2023/07/18 04:21:13;;;;;;;14.63;5.63;;;23.80;74.60;;;;;;5008889;28;20094;-57
2023/07/18 04:23:39;;;;;;;19.33;6.03;;;23.80;74.60;;;;;;5022664;28;20048;-57
2023/07/18 04:26:04;;;;;;;15.25;4.88;;;23.80;74.50;;;;;;5026196;28;20037;-57
2023/07/18 04:28:33;;;;;;;16.25;5.30;;;23.80;74.50;;;;;;5024852;28;20034;-57
2023/07/18 04:30:59;;;;;;;16.45;4.72;;;23.80;74.50;;;;;;5025185;28;20034;-57
2023/07/18 04:33:25;;;;;;;12.00;4.28;;;23.70;74.40;;;;;;5025139;28;20057;-57
2023/07/18 04:35:50;;;;;;;9.27;4.35;;;23.70;74.40;;;;;;5025167;28;20029;-57
2023/07/18 04:38:16;;;;;;;11.68;4.70;;;23.70;74.50;;;;;;5026386;28;20029;-57
2023/07/18 04:40:42;;;;;;;16.67;4.88;;;23.70;74.50;;;;;;5025148;28;20036;-57
2023/07/18 04:43:07;;;;;;;17.65;4.85;;;23.70;74.40;;;;;;5026732;28;20034;-52
2023/07/18 04:45:33;;;;;;;14.98;5.35;;;23.70;74.30;;;;;;5008622;28;20040;-52
2023/07/18 04:47:59;;;;;;;15.90;5.53;;;23.70;74.30;;;;;;5026730;28;20109;-52
2023/07/18 04:50:25;;;;;;;21.42;9.48;;;23.70;74.20;;;;;;5038478;28;20516;-52
2023/07/18 04:52:51;;;;;;;31.83;10.13;;;23.60;74.20;;;;;;5043091;28;20045;-52
2023/07/18 04:55:17;;;;;;;39.20;16.17;;;23.60;74.20;;;;;;5043091;28;20498;-52
2023/07/18 04:57:43;;;;;;;35.70;17.52;;;23.60;74.20;;;;;;5026434;28;20021;-52
2023/07/18 05:00:10;;;;;;;35.15;18.77;;;23.50;74.10;;;;;;5043954;28;20040;-52
2023/07/18 05:02:35;;;;;;;84.50;43.38;;;23.50;74.00;;;;;;5009406;28;20030;-52
2023/07/18 05:05:01;;;;;;;39.97;21.08;;;23.50;74.10;;;;;;5023138;28;20037;-52
2023/07/18 05:07:27;;;;;;;41.80;22.27;;;23.50;73.90;;;;;;5006452;28;20104;-52
2023/07/18 05:09:53;;;;;;;49.70;22.80;;;23.50;73.80;;;;;;5024153;28;20037;-52
2023/07/18 05:12:18;;;;;;;44.17;20.50;;;23.50;73.70;;;;;;5022837;28;20037;-52
2023/07/18 05:14:44;;;;;;;44.03;18.52;;;23.50;73.70;;;;;;5022986;28;20026;-52
2023/07/18 05:17:10;;;;;;;42.53;19.17;;;23.50;73.70;;;;;;5006474;28;20021;-52
2023/07/18 05:19:35;;;;;;;39.67;18.77;;;23.50;73.70;;;;;;5022763;28;20082;-52
2023/07/18 05:22:01;;;;;;;50.92;19.35;;;23.50;73.70;;;;;;5024584;28;20442;-52
2023/07/18 05:24:26;;;;;;;37.60;17.55;;;23.40;73.50;;;;;;5024531;28;20022;-52
2023/07/18 05:26:52;;;;;;;33.55;16.88;;;23.40;73.50;;;;;;5011686;28;20036;-53
2023/07/18 05:29:18;;;;;;;34.10;16.42;;;23.50;73.40;;;;;;5029036;28;20072;-52
2023/07/18 05:31:43;;;;;;;30.92;16.05;;;23.40;73.40;;;;;;5028735;28;20422;-52
2023/07/18 05:34:09;;;;;;;25.83;15.13;;;23.40;73.40;;;;;;5030314;28;20061;-52
2023/07/18 05:36:35;;;;;;;25.65;14.52;;;23.40;73.30;;;;;;5029518;28;20033;-57
2023/07/18 05:39:00;;;;;;;29.48;14.45;;;23.40;73.30;;;;;;5030034;28;20033;-52
2023/07/18 05:41:26;;;;;;;26.65;14.32;;;23.40;73.20;;;;;;5029888;28;20101;-52
2023/07/18 05:43:51;;;;;;;26.75;13.75;;;23.40;73.10;;;;;;5012457;28;20041;-52
2023/07/18 05:46:17;;;;;;;25.35;12.52;;;23.40;73.10;;;;;;5029763;28;20038;-52
2023/07/18 05:48:43;;;;;;;26.42;12.63;;;23.40;73.00;;;;;;5029858;28;20030;-52
2023/07/18 05:51:08;;;;;;;22.25;11.88;;;23.40;73.10;;;;;;5028608;28;20038;-52
2023/07/18 05:53:34;;;;;;;20.08;12.23;;;23.40;73.00;;;;;;5027746;28;20040;-52
2023/07/18 05:55:59;;;;;;;27.95;12.52;;;23.40;73.00;;;;;;5029598;28;20045;-52
2023/07/18 05:58:25;;;;;;;23.20;10.23;;;23.40;73.00;;;;;;5026324;28;20028;-53
2023/07/18 06:00:50;;;;;;;15.80;9.70;;;23.40;72.90;;;;;;5020507;28;20069;-53
2023/07/18 06:03:17;;;;;;;16.65;8.30;;;23.40;72.90;;;;;;5017046;28;20038;-51
2023/07/18 06:05:43;;;;;;;25.95;9.55;;;23.40;72.80;;;;;;5022184;28;20053;-51
2023/07/18 06:08:09;;;;;;;20.40;8.98;;;23.40;72.70;;;;;;5018776;28;20030;-53
2023/07/18 06:10:35;;;;;;;13.73;6.85;;;23.30;72.70;;;;;;5016105;28;20030;-53
2023/07/18 06:13:00;;;;;;;10.98;6.57;;;23.40;72.80;;;;;;5018172;28;20457;-53
2023/07/18 06:15:26;;;;;;;16.45;6.93;;;23.40;72.80;;;;;;5017376;28;20026;-53
2023/07/18 06:17:51;;;;;;;13.95;6.20;;;23.30;72.90;;;;;;5015215;28;20035;-53
2023/07/18 06:20:17;;;;;;;13.68;5.90;;;23.30;72.80;;;;;;5017881;28;20034;-52
2023/07/18 06:22:44;;;;;;;9.70;5.78;;;23.30;73.00;;;;;;5022947;28;20030;-53
2023/07/18 06:25:10;;;;;;;13.38;5.60;;;23.30;73.00;;;;;;5004823;28;20034;-51
2023/07/18 06:27:35;;;;;;;10.82;5.30;;;23.30;73.10;;;;;;5019517;28;20029;-53
2023/07/18 06:30:01;;;;;;;14.07;5.25;;;23.30;73.20;;;;;;5019029;28;20112;-53
2023/07/18 06:32:27;;;;;;;8.65;4.20;;;23.30;73.30;;;;;;5015688;28;20023;-53
2023/07/18 06:34:52;;;;;;;8.57;4.07;;;23.20;73.50;;;;;;5017355;28;20019;-52
2023/07/18 06:37:18;;;;;;;42.72;7.57;;;23.20;73.50;;;;;;5020731;28;20030;-53
2023/07/18 06:39:44;;;;;;;58.78;8.10;;;23.20;73.70;;;;;;5025352;28;20030;-52
2023/07/18 06:42:09;;;;;;;23.38;5.60;;;23.20;73.80;;;;;;5020121;28;20302;-52
2023/07/18 06:44:35;;;;;;;19.77;5.03;;;23.10;73.90;;;;;;5015036;28;20018;-52
2023/07/18 06:47:00;;;;;;;16.10;4.35;;;23.20;74.10;;;;;;5022362;28;20029;-53
2023/07/18 06:49:26;;;;;;;14.32;4.50;;;23.10;74.30;;;;;;5020806;28;20042;-53
2023/07/18 06:51:52;;;;;;;12.95;4.45;;;23.10;74.40;;;;;;5018536;28;20022;-53
2023/07/18 06:54:18;;;;;;;14.82;4.78;;;23.20;74.50;;;;;;5020275;28;20430;-53
2023/07/18 06:56:45;;;;;;;14.52;4.50;;;23.10;74.30;;;;;;5002552;28;20094;-53
2023/07/18 06:59:10;;;;;;;10.27;4.00;;;23.10;74.30;;;;;;5018903;28;20037;-52
2023/07/18 07:01:36;;;;;;;18.65;4.53;;;23.20;74.50;;;;;;5018241;28;20033;-52
2023/07/18 07:04:02;;;;;;;16.73;4.30;;;23.20;74.50;;;;;;5017167;28;20040;-53
2023/07/18 07:06:28;;;;;;;13.93;4.90;;;23.20;74.40;;;;;;5022389;28;20076;-53
2023/07/18 07:08:53;;;;;;;16.45;4.72;;;23.20;74.50;;;;;;5013070;28;20037;-53
2023/07/18 07:11:19;;;;;;;22.05;4.75;;;23.20;74.70;;;;;;5024183;28;20030;-53
2023/07/18 07:13:44;;;;;;;10.82;4.63;;;23.20;74.70;;;;;;5021301;28;20030;-53
2023/07/18 07:16:10;;;;;;;14.98;4.70;;;23.20;74.90;;;;;;5007930;28;20041;-53
2023/07/18 07:18:36;;;;;;;14.48;4.63;;;23.20;74.90;;;;;;5013501;28;20516;-53
2023/07/18 07:21:01;;;;;;;10.13;4.88;;;23.20;75.20;;;;;;5026640;28;20030;-53
2023/07/18 07:23:28;;;;;;;20.63;5.85;;;23.20;75.30;;;;;;5026485;28;20033;-53
2023/07/18 07:25:54;;;;;;;9.65;4.53;;;23.20;75.40;;;;;;5026796;28;20037;-53
2023/07/18 07:28:22;;;;;;;22.60;5.50;;;23.20;75.50;;;;;;5028003;28;20030;-53
2023/07/18 07:30:48;;;;;;;28.80;5.25;;;23.20;75.80;;;;;;5026386;28;20040;-53
2023/07/18 07:33:14;;;;;;;38.08;7.70;;;23.20;75.90;;;;;;5027853;28;20033;-53
2023/07/18 07:35:39;;;;;;;33.65;7.00;;;23.20;76.30;;;;;;5024513;28;20505;-53
2023/07/18 07:38:05;;;;;;;71.13;11.27;;;23.20;76.50;;;;;;5006457;28;20475;-53
2023/07/18 07:40:31;;;;;;;42.55;8.23;;;23.20;76.50;;;;;;5019847;28;20094;-53
2023/07/18 07:42:57;;;;;;;32.55;6.63;;;23.20;76.50;;;;;;5027091;28;20030;-53
2023/07/18 07:45:22;;;;;;;25.90;6.03;;;23.20;76.60;;;;;;5025178;28;20044;-53
2023/07/18 07:47:48;;;;;;;18.38;5.32;;;23.20;76.50;;;;;;5018932;28;20037;-53
2023/07/18 07:50:13;;;;;;;16.38;5.80;;;23.20;76.70;;;;;;5026942;28;20100;-53
2023/07/18 07:52:39;;;;;;;23.42;5.38;;;23.30;76.70;;;;;;5022515;28;20033;-53
2023/07/18 07:55:05;;;;;;;23.55;5.93;;;23.30;76.50;;;;;;5013102;28;20022;-53
2023/07/18 07:57:31;;;;;;;22.25;5.72;;;23.30;76.30;;;;;;5007337;28;20042;-53
2023/07/18 07:59:56;;;;;;;25.27;6.10;;;23.30;76.30;;;;;;5018346;28;20029;-53
2023/07/18 08:02:22;;;;;;;16.90;5.78;;;23.30;76.30;;;;;;5022772;28;20038;-53
2023/07/18 08:04:48;;;;;;;15.32;4.88;;;23.30;76.30;;;;;;5007110;28;20050;-53
2023/07/18 08:07:14;;;;;;;17.65;5.65;;;23.30;76.50;;;;;;5006673;28;20045;-53
2023/07/18 08:09:39;;;;;;;27.88;6.35;;;23.30;76.70;;;;;;5012788;28;20045;-53
2023/07/18 08:12:07;;;;;;;19.95;6.13;;;23.40;76.90;;;;;;5009510;28;20037;-53
2023/07/18 08:14:33;;;;;;;31.92;7.00;;;23.40;77.20;;;;;;5016004;28;20061;-53
2023/07/18 08:16:59;;;;;;;27.58;6.57;;;23.40;77.40;;;;;;5024034;28;20029;-53
2023/07/18 08:19:25;;;;;;;30.35;6.75;;;23.40;77.20;;;;;;5022478;28;20132;-53
2023/07/18 08:21:51;;;;;;;22.08;6.25;;;23.40;77.30;;;;;;5018578;28;20026;-53
2023/07/18 08:24:17;;;;;;;35.85;7.10;;;23.50;77.30;;;;;;5022181;28;20037;-53
2023/07/18 08:26:43;;;;;;;21.45;6.30;;;23.50;77.30;;;;;;5019766;28;20038;-52
2023/07/18 08:29:08;;;;;;;23.75;6.65;;;23.50;77.50;;;;;;5019920;28;20101;-53
2023/07/18 08:31:34;;;;;;;26.30;6.20;;;23.50;77.80;;;;;;5021126;28;20053;-53
2023/07/18 08:33:59;;;;;;;19.77;5.82;;;23.60;77.90;;;;;;5017375;28;20041;-53
2023/07/18 08:36:25;;;;;;;23.38;6.32;;;23.50;77.50;;;;;;5019033;28;20033;-53
2023/07/18 08:38:51;;;;;;;29.55;6.50;;;23.60;77.70;;;;;;5025694;28;20034;-53
2023/07/18 08:41:20;;;;;;;33.35;6.78;;;23.60;78.20;;;;;;4996848;28;20038;-53
2023/07/18 08:43:45;;;;;;;29.70;7.13;;;23.60;78.40;;;;;;5017975;28;20079;-53
2023/07/18 08:46:13;;;;;;;51.22;7.90;;;23.60;78.10;;;;;;5010412;28;20034;-53
2023/07/18 08:48:45;;;;;;;46.92;8.75;;;23.70;78.10;;;;;;5019313;28;20394;-53
2023/07/18 08:51:11;;;;;;;30.05;7.82;;;23.70;78.30;;;;;;5004971;28;20038;-52
2023/07/18 08:53:40;;;;;;;70.18;12.50;;;23.80;78.60;;;;;;5013527;28;20121;-52
2023/07/18 08:56:09;;;;;;;81.30;12.13;;;23.80;78.20;;;;;;5019146;28;20125;-53
2023/07/18 08:58:36;;;;;;;108.53;14.98;;;23.80;78.00;;;;;;5024487;28;20034;-52
2023/07/18 09:01:05;;;;;;;86.82;13.13;;;23.90;78.10;;;;;;5021372;28;20038;-52
2023/07/18 09:03:30;;;;;;;82.78;12.68;;;23.90;78.50;;;;;;5021771;28;20059;-53
2023/07/18 09:05:57;;;;;;;71.07;11.95;;;24.00;78.50;;;;;;5024062;28;20061;-53
2023/07/18 09:08:23;;;;;;;75.00;12.27;;;24.00;78.50;;;;;;5006985;28;20044;-53
2023/07/18 09:11:01;;;;;;;92.60;14.57;;;24.00;78.50;;;;;;5004580;28;20116;-53
2023/07/18 09:13:27;;;;;;;77.60;12.88;;;24.00;78.40;;;;;;5016165;28;20567;-53
2023/07/18 09:15:52;;;;;;;64.55;12.80;;;24.00;78.50;;;;;;5009971;28;20030;-51
2023/07/18 09:18:18;;;;;;;81.82;12.57;;;24.10;78.70;;;;;;5019904;28;20026;-51
2023/07/18 09:20:44;;;;;;;93.03;13.80;;;24.10;79.40;;;;;;5023673;28;20109;-51
2023/07/18 09:23:10;;;;;;;74.57;13.48;;;24.10;78.70;;;;;;5023096;28;20034;-51
2023/07/18 09:25:39;;;;;;;86.82;13.02;;;24.10;78.60;;;;;;5012368;28;20041;-53
2023/07/18 09:28:08;;;;;;;53.65;10.45;;;24.20;78.70;;;;;;5007622;28;20374;-52
2023/07/18 09:30:37;;;;;;;73.63;13.60;;;24.20;79.00;;;;;;5016916;28;20126;-53
2023/07/18 09:33:03;;;;;;;92.05;13.02;;;24.30;79.20;;;;;;4995810;28;20112;-51
2023/07/18 09:35:29;;;;;;;63.65;11.85;;;24.30;79.20;;;;;;5001484;28;20041;-50
2023/07/18 09:37:54;;;;;;;78.65;13.55;;;24.30;79.30;;;;;;5031715;28;20019;-51
2023/07/18 09:40:20;;;;;;;61.03;12.05;;;24.40;79.30;;;;;;5013150;28;20057;-51
2023/07/18 09:42:47;;;;;;;79.20;12.25;;;24.40;79.50;;;;;;5013918;28;20510;-52
2023/07/18 09:45:13;;;;;;;72.35;12.85;;;24.40;79.50;;;;;;5015754;28;20030;-52
2023/07/18 09:47:40;;;;;;;67.88;11.90;;;24.50;79.40;;;;;;5017907;28;20109;-52
2023/07/18 09:50:05;;;;;;;58.75;11.25;;;24.50;79.30;;;;;;5017046;28;20090;-52
2023/07/18 09:52:31;;;;;;;71.50;11.55;;;24.50;79.30;;;;;;5019396;28;20061;-53
2023/07/18 09:54:57;;;;;;;70.63;13.43;;;24.60;79.40;;;;;;4996578;28;20030;-52
2023/07/18 09:57:22;;;;;;;42.58;9.77;;;24.70;79.30;;;;;;5007411;28;20467;-52
2023/07/18 09:59:48;;;;;;;54.75;8.43;;;24.70;79.30;;;;;;5000507;28;20101;-52
2023/07/18 10:02:14;;;;;;;56.30;10.18;;;24.80;79.20;;;;;;5015444;28;20038;-57
2023/07/18 10:04:39;;;;;;;35.03;9.13;;;24.80;79.10;;;;;;5017620;28;20029;-56
2023/07/18 10:07:07;;;;;;;37.20;8.50;;;24.90;78.90;;;;;;5016018;28;20026;-57
2023/07/18 10:09:33;;;;;;;46.88;9.40;;;25.00;78.60;;;;;;5016868;28;20113;-57
2023/07/18 10:11:58;;;;;;;43.33;9.80;;;25.10;78.40;;;;;;5019480;28;20024;-57
2023/07/18 10:14:42;;;;;;;49.70;9.35;;;25.10;78.10;;;;;;5024478;28;20038;-56
2023/07/18 10:17:07;;;;;;;43.90;9.80;;;25.20;78.00;;;;;;5021638;28;20026;-56
2023/07/18 10:19:48;;;;;;;62.42;10.70;;;25.20;77.90;;;;;;5018655;28;20022;-56
2023/07/18 10:22:33;;;;;;;60.22;9.68;;;25.30;77.90;;;;;;5018761;28;20030;-57
2023/07/18 10:25:00;;;;;;;52.05;11.05;;;25.30;77.70;;;;;;5021590;28;20109;-56
2023/07/18 10:27:37;;;;;;;82.07;11.80;;;25.40;77.60;;;;;;4992274;28;20026;-56
2023/07/18 10:30:12;;;;;;;65.03;10.50;;;25.40;77.60;;;;;;5022256;28;20029;-57
2023/07/18 10:32:38;;;;;;;46.25;9.23;;;25.40;77.50;;;;;;5022121;28;20496;-57
2023/07/18 10:35:11;;;;;;;47.53;10.25;;;25.50;77.30;;;;;;5021705;28;20077;-56
2023/07/18 10:37:44;;;;;;;44.53;9.15;;;25.60;77.30;;;;;;5017882;28;20025;-57
2023/07/18 10:40:10;;;;;;;60.03;11.85;;;25.50;76.90;;;;;;5024002;28;20102;-56
2023/07/18 10:42:36;;;;;;;90.65;14.50;;;25.60;77.20;;;;;;5017713;28;20030;-56
2023/07/18 10:45:03;;;;;;;86.70;13.90;;;25.60;77.10;;;;;;5003957;28;20552;-57
2023/07/18 10:47:29;;;;;;;58.20;11.05;;;25.70;77.10;;;;;;5020298;28;20474;-56
2023/07/18 10:49:55;;;;;;;84.72;13.02;;;25.80;76.80;;;;;;4999158;28;20058;-56
2023/07/18 10:52:20;;;;;;;69.55;10.45;;;25.80;76.70;;;;;;4982750;28;20093;-56
2023/07/18 10:54:55;;;;;;;87.38;12.82;;;25.90;76.40;;;;;;4981559;28;20029;-56
2023/07/18 10:57:38;;;;;;;71.07;12.07;;;26.00;76.30;;;;;;4976180;28;20032;-56
2023/07/18 11:00:05;;;;;;;92.65;14.10;;;26.00;76.10;;;;;;4985156;28;20051;-56
2023/07/18 11:02:41;;;;;;;77.35;12.25;;;26.10;76.10;;;;;;4987878;28;20045;-56
2023/07/18 11:05:10;;;;;;;111.97;14.80;;;26.10;75.90;;;;;;4987715;28;20073;-56
2023/07/18 11:07:38;;;;;;;93.88;13.63;;;26.10;76.00;;;;;;4982616;28;20029;-56
2023/07/18 11:10:06;;;;;;;94.10;11.85;;;26.10;76.00;;;;;;4985721;28;20102;-56
2023/07/18 11:12:31;;;;;;;62.85;10.40;;;26.10;75.60;;;;;;4954263;28;20505;-56
2023/07/18 11:14:57;;;;;;;76.47;11.25;;;26.10;75.30;;;;;;4981403;28;20019;-56
2023/07/18 11:17:22;;;;;;;72.65;11.02;;;26.20;75.20;;;;;;4985122;28;20035;-56
2023/07/18 11:19:48;;;;;;;57.03;9.75;;;26.20;75.10;;;;;;4987056;28;20086;-56
2023/07/18 11:22:14;;;;;;;74.63;10.63;;;26.20;75.60;;;;;;4986444;28;20026;-57
2023/07/18 11:24:41;;;;;;;54.42;9.75;;;26.20;76.10;;;;;;4985491;28;20054;-57
2023/07/18 11:27:22;;;;;;;52.70;8.77;;;26.20;76.70;;;;;;4984375;28;20059;-57
2023/07/18 11:29:57;;;;;;;42.40;8.85;;;26.20;76.90;;;;;;4988288;28;20033;-57
2023/07/18 11:32:38;;;;;;;46.88;9.13;;;26.10;77.30;;;;;;4987201;28;20038;-57
2023/07/18 11:35:06;;;;;;;42.72;7.93;;;26.10;78.80;;;;;;4985933;28;20042;-57
2023/07/18 11:37:32;;;;;;;84.28;10.43;;;26.00;79.20;;;;;;4984455;28;20142;-57
2023/07/18 11:39:58;;;;;;;59.05;10.10;;;26.00;79.50;;;;;;4984751;28;20026;-57
2023/07/18 11:42:46;;;;;;;75.93;10.95;;;26.00;79.80;;;;;;4983424;28;20046;-57
2023/07/18 11:45:11;;;;;;;64.13;10.93;;;26.00;80.40;;;;;;4991128;28;20050;-57
2023/07/18 11:47:42;;;;;;;50.78;9.55;;;26.00;80.20;;;;;;4985513;28;20046;-58
2023/07/18 11:50:09;;;;;;;52.22;9.23;;;26.00;81.20;;;;;;4984821;28;20101;-57
2023/07/18 11:52:35;;;;;;;50.28;9.38;;;26.00;81.80;;;;;;4983842;28;20043;-57
2023/07/18 11:55:00;;;;;;;58.55;10.90;;;25.90;81.20;;;;;;4985808;28;20503;-57
2023/07/18 11:57:26;;;;;;;54.40;9.48;;;25.90;81.20;;;;;;4984457;28;20094;-58
2023/07/18 11:59:52;;;;;;;56.70;10.10;;;25.90;81.80;;;;;;4984932;28;20037;-58
2023/07/18 12:02:18;;;;;;;60.05;10.77;;;25.90;82.10;;;;;;4974393;28;20035;-58
2023/07/18 12:04:44;;;;;;;46.55;9.20;;;25.90;81.90;;;;;;4986689;28;20034;-58
2023/07/18 12:07:10;;;;;;;49.10;9.07;;;25.90;82.10;;;;;;4966875;28;20199;-58
2023/07/18 12:09:35;;;;;;;53.05;9.68;;;25.90;83.80;;;;;;4966195;28;20032;-57
2023/07/18 12:12:01;;;;;;;40.85;8.80;;;25.90;84.30;;;;;;4985024;28;20528;-58
2023/07/18 12:14:27;;;;;;;47.13;8.77;;;25.90;84.50;;;;;;4986172;28;20113;-58
2023/07/18 12:16:53;;;;;;;41.13;8.02;;;25.80;83.50;;;;;;4985746;28;20511;-58
2023/07/18 12:19:20;;;;;;;35.65;8.57;;;25.80;84.50;;;;;;4998018;28;20031;-58
2023/07/18 12:21:46;;;;;;;40.42;8.23;;;25.80;85.10;;;;;;4986992;28;20045;-58
2023/07/18 12:24:12;;;;;;;52.20;8.50;;;25.80;84.90;;;;;;4985664;28;20054;-58
2023/07/18 12:26:37;;;;;;;41.17;8.20;;;25.80;85.60;;;;;;4976869;28;20096;-58
2023/07/18 12:29:03;;;;;;;27.88;7.80;;;25.80;85.90;;;;;;4985699;28;20043;-58
2023/07/18 12:31:31;;;;;;;32.42;7.72;;;25.80;85.60;;;;;;4968117;28;20026;-58
2023/07/18 12:33:56;;;;;;;34.85;7.95;;;25.70;85.60;;;;;;4982151;28;20035;-57